Wetterstation Vordersexau
Wetterdaten: Woche 02.02.15 - 08.02.15 (KW6)
Datum Zeit Temp. A. Feuchte A. Luftdruck Regen Wind Richtung Taupunkt Windchill Windben
02.02.2015 00:00 1,8 C 87 % 995,6 hPa 0,0 l/m 9,7 km/h SW -0,1 C -1,2 C 5,4 km/h
02.02.2015 01:00 1,3 C 87 % 996,6 hPa 0,0 l/m 8,4 km/h W-SW -0,6 C -0,7 C 4,7 km/h
02.02.2015 02:00 1,0 C 87 % 997,7 hPa 0,0 l/m 0,6 km/h W -0,9 C 1,0 C 0,4 km/h
02.02.2015 03:00 0,9 C 87 % 998,5 hPa 0,8 l/m 0,0 km/h W-SW -1,0 C 0,9 C 0,0 km/h
02.02.2015 04:00 1,2 C 87 % 999,0 hPa 0,0 l/m 0,0 km/h W -0,7 C 1,2 C 0,0 km/h
02.02.2015 05:00 0,5 C 87 % 999,9 hPa 0,0 l/m 6,5 km/h S-SW -1,4 C 0,4 C 3,6 km/h
02.02.2015 06:00 0,4 C 87 % 1000,1 hPa 0,0 l/m 3,9 km/h W -1,5 C 0,4 C 2,2 km/h
02.02.2015 07:00 0,4 C 87 % 1000,2 hPa 0,0 l/m 0,0 km/h W -1,5 C 0,4 C 0,0 km/h
02.02.2015 08:00 0,7 C 87 % 1000,6 hPa 0,8 l/m 0,0 km/h W-SW -1,2 C 0,7 C 0,0 km/h
02.02.2015 09:00 1,6 C 87 % 1000,7 hPa 0,8 l/m 0,0 km/h SW -0,3 C 1,6 C 0,0 km/h
02.02.2015 10:00 1,9 C 87 % 1001,0 hPa 0,0 l/m 18,8 km/h W-NW -0,0 C -6,6 C 10,4 km/h
02.02.2015 11:00 1,3 C 87 % 1001,0 hPa 0,8 l/m 1,3 km/h W -0,6 C 1,3 C 0,7 km/h
02.02.2015 12:00 1,8 C 87 % 1000,7 hPa 0,8 l/m 0,0 km/h W-NW -0,1 C 1,8 C 0,0 km/h
02.02.2015 13:00 0,2 C 87 % 1001,1 hPa 0,0 l/m 0,0 km/h W-NW -1,7 C 0,2 C 0,0 km/h
02.02.2015 14:00 0,6 C 86 % 1001,4 hPa 0,0 l/m 0,0 km/h W-SW -1,5 C 0,6 C 0,0 km/h
02.02.2015 15:00 1,2 C 87 % 1001,1 hPa 0,0 l/m 0,0 km/h SW -0,7 C 1,2 C 0,0 km/h
02.02.2015 16:00 0,7 C 87 % 1001,2 hPa 0,8 l/m 0,0 km/h SW -1,2 C 0,7 C 0,0 km/h
02.02.2015 17:00 -0,4 C 88 % 1001,5 hPa 0,0 l/m 0,0 km/h SW -2,1 C -0,4 C 0,0 km/h
02.02.2015 18:00 -0,4 C 87 % 1001,7 hPa 0,8 l/m 0,0 km/h SW -2,3 C -0,4 C 0,0 km/h
02.02.2015 19:00 -0,3 C 87 % 1001,7 hPa 0,0 l/m 0,0 km/h SW -2,2 C -0,3 C 0,0 km/h
02.02.2015 20:00 -0,2 C 87 % 1001,8 hPa 0,0 l/m 0,0 km/h SW -2,1 C -0,2 C 0,0 km/h
02.02.2015 21:00 -0,2 C 87 % 1001,6 hPa 0,0 l/m 0,0 km/h SW -2,1 C -0,2 C 0,0 km/h
02.02.2015 22:00 -0,4 C 87 % 1001,5 hPa 0,0 l/m 0,0 km/h SW -2,3 C -0,4 C 0,0 km/h
02.02.2015 23:00 -0,6 C 87 % 1001,2 hPa 0,0 l/m 0,0 km/h SW -2,5 C -0,6 C 0,0 km/h
03.02.2015 00:00 -0,6 C 86 % 1001,0 hPa 0,0 l/m 0,0 km/h SW -2,6 C -0,6 C 0,0 km/h
03.02.2015 01:00 -0,7 C 86 % 1000,8 hPa 0,0 l/m 0,0 km/h S -2,7 C -0,7 C 0,0 km/h
03.02.2015 02:00 -1,3 C 87 % 1000,5 hPa 0,0 l/m 0,0 km/h S -3,2 C -1,3 C 0,0 km/h
03.02.2015 03:00 -1,9 C 87 % 1000,1 hPa 0,0 l/m 0,0 km/h SO -3,8 C -1,9 C 0,0 km/h
03.02.2015 04:00 -2,1 C 87 % 999,8 hPa 0,0 l/m 0,0 km/h SO -4,0 C -2,1 C 0,0 km/h
03.02.2015 05:00 -2,9 C 87 % 999,9 hPa 0,0 l/m 0,0 km/h O-SO -4,8 C -2,9 C 0,0 km/h
03.02.2015 06:00 -3,7 C 87 % 1000,0 hPa 0,0 l/m 0,0 km/h O-SO -5,5 C -3,7 C 0,0 km/h
03.02.2015 07:00 -4,4 C 87 % 1000,1 hPa 0,0 l/m 0,0 km/h O-SO -6,2 C -4,4 C 0,0 km/h
03.02.2015 08:00 -3,5 C 86 % 1000,7 hPa 0,0 l/m 0,0 km/h O-SO -5,5 C -3,5 C 0,0 km/h
03.02.2015 09:00 -0,9 C 85 % 1000,7 hPa 0,0 l/m 0,0 km/h O-SO -3,1 C -0,9 C 0,0 km/h
03.02.2015 10:00 6,3 C 87 % 1000,8 hPa 0,0 l/m 0,0 km/h O 4,3 C 6,3 C 0,0 km/h
03.02.2015 11:00 8,8 C 75 % 1000,7 hPa 1,6 l/m 0,0 km/h W-NW 4,6 C 8,8 C 0,0 km/h
03.02.2015 12:00 7,1 C 69 % 1000,5 hPa 1,6 l/m 0,0 km/h W-NW 1,8 C 7,1 C 0,0 km/h
03.02.2015 13:00 5,0 C 75 % 1000,3 hPa 1,6 l/m 0,0 km/h S-SO 0,9 C 5,0 C 0,0 km/h
03.02.2015 14:00 4,9 C 78 % 1000,0 hPa 0,0 l/m 0,0 km/h S-SO 1,4 C 4,9 C 0,0 km/h
03.02.2015 15:00 5,3 C 71 % 1000,5 hPa 0,8 l/m 0,0 km/h SO 0,5 C 5,3 C 0,0 km/h
03.02.2015 16:00 1,3 C 80 % 1000,6 hPa 0,0 l/m 0,0 km/h SO -1,8 C 1,3 C 0,0 km/h
03.02.2015 17:00 -1,3 C 83 % 1001,0 hPa 0,0 l/m 0,0 km/h SO -3,8 C -1,3 C 0,0 km/h
03.02.2015 18:00 -2,5 C 84 % 1001,5 hPa 0,0 l/m 0,0 km/h SO -4,8 C -2,5 C 0,0 km/h
03.02.2015 19:00 -2,7 C 86 % 1001,9 hPa 0,0 l/m 0,0 km/h SO -4,7 C -2,7 C 0,0 km/h
03.02.2015 20:00 -3,1 C 87 % 1002,2 hPa 0,0 l/m 0,0 km/h SO -4,9 C -3,1 C 0,0 km/h
03.02.2015 21:00 -3,1 C 87 % 1002,5 hPa 0,0 l/m 0,0 km/h SO -4,9 C -3,1 C 0,0 km/h
03.02.2015 22:00 -3,1 C 87 % 1002,6 hPa 0,0 l/m 0,0 km/h SO -4,9 C -3,1 C 0,0 km/h
03.02.2015 23:00 -3,8 C 88 % 1002,9 hPa 0,0 l/m 0,0 km/h SO -5,5 C -3,8 C 0,0 km/h
04.02.2015 00:00 -4,8 C 87 % 1003,3 hPa 0,0 l/m 0,0 km/h SO -6,6 C -4,8 C 0,0 km/h
04.02.2015 01:00 -5,1 C 88 % 1003,1 hPa 0,0 l/m 0,0 km/h SO -6,8 C -5,1 C 0,0 km/h
04.02.2015 02:00 -4,6 C 88 % 1003,3 hPa 0,0 l/m 0,0 km/h SO -6,3 C -4,6 C 0,0 km/h
04.02.2015 03:00 -5,9 C 88 % 1003,8 hPa 0,0 l/m 0,0 km/h SO -7,6 C -5,9 C 0,0 km/h
04.02.2015 04:00 -5,9 C 88 % 1004,1 hPa 0,0 l/m 0,0 km/h SO -7,6 C -5,9 C 0,0 km/h
04.02.2015 05:00 -6,3 C 88 % 1004,6 hPa 0,0 l/m 0,0 km/h SO -8,0 C -6,3 C 0,0 km/h
04.02.2015 06:00 -6,2 C 88 % 1005,0 hPa 0,0 l/m 0,0 km/h SO -7,9 C -6,2 C 0,0 km/h
04.02.2015 07:00 -5,9 C 88 % 1005,7 hPa 0,0 l/m 0,0 km/h SO -7,6 C -5,9 C 0,0 km/h
04.02.2015 08:00 -4,3 C 87 % 1006,5 hPa 0,0 l/m 0,0 km/h SO -6,1 C -4,3 C 0,0 km/h
04.02.2015 09:00 1,5 C 87 % 1006,8 hPa 0,0 l/m 0,0 km/h O-SO -0,4 C 1,5 C 0,0 km/h
04.02.2015 10:00 5,8 C 79 % 1006,7 hPa 0,0 l/m 0,0 km/h N-NO 2,4 C 5,8 C 0,0 km/h
04.02.2015 11:00 4,6 C 67 % 1007,0 hPa 0,8 l/m 8,4 km/h N-NO -1,0 C 2,9 C 4,7 km/h
04.02.2015 12:00 6,4 C 63 % 1007,0 hPa 0,0 l/m 0,0 km/h NO -0,1 C 6,4 C 0,0 km/h
04.02.2015 13:00 4,9 C 62 % 1007,3 hPa 0,0 l/m 2,6 km/h N-NO -1,8 C 4,9 C 1,4 km/h
04.02.2015 14:00 7,9 C 58 % 1008,0 hPa 0,0 l/m 0,0 km/h N-NO 0,2 C 7,9 C 0,0 km/h
04.02.2015 15:00 7,6 C 56 % 1009,1 hPa 0,0 l/m 0,0 km/h N-NO -0,6 C 7,6 C 0,0 km/h
04.02.2015 16:00 0,9 C 68 % 1009,7 hPa 0,0 l/m 2,6 km/h O-NO -4,3 C 0,9 C 1,4 km/h
04.02.2015 17:00 -0,4 C 73 % 1010,3 hPa 0,0 l/m 0,0 km/h N-NO -4,6 C -0,4 C 0,0 km/h
04.02.2015 18:00 -0,6 C 75 % 1011,3 hPa 0,0 l/m 0,0 km/h N-NO -4,5 C -0,6 C 0,0 km/h
04.02.2015 19:00 -0,7 C 75 % 1011,5 hPa 0,0 l/m 0,0 km/h N-NO -4,6 C -0,7 C 0,0 km/h
04.02.2015 20:00 -0,8 C 76 % 1012,0 hPa 0,0 l/m 12,3 km/h N-NO -4,5 C -6,1 C 6,8 km/h
04.02.2015 21:00 -1,1 C 79 % 1012,2 hPa 0,0 l/m 0,0 km/h N-NO -4,3 C -1,1 C 0,0 km/h
04.02.2015 22:00 -1,4 C 80 % 1011,9 hPa 0,0 l/m 0,0 km/h N-NO -4,4 C -1,4 C 0,0 km/h
04.02.2015 23:00 -2,0 C 81 % 1012,0 hPa 0,0 l/m 0,0 km/h N-NO -4,8 C -2,0 C 0,0 km/h
05.02.2015 00:00 -1,3 C 81 % 1011,6 hPa 0,0 l/m 0,0 km/h N-NO -4,1 C -1,3 C 0,0 km/h
05.02.2015 01:00 -1,0 C 80 % 1011,4 hPa 0,0 l/m 0,0 km/h N-NO -4,0 C -1,0 C 0,0 km/h
05.02.2015 02:00 -0,9 C 79 % 1011,5 hPa 0,0 l/m 0,0 km/h N -4,1 C -0,9 C 0,0 km/h
05.02.2015 03:00 -0,9 C 78 % 1010,6 hPa 0,0 l/m 2,6 km/h NO -4,2 C -0,9 C 1,4 km/h
05.02.2015 04:00 -0,9 C 77 % 1011,1 hPa 0,0 l/m 0,0 km/h N-NO -4,4 C -0,9 C 0,0 km/h
05.02.2015 05:00 -1,0 C 77 % 1010,6 hPa 0,0 l/m 0,0 km/h N -4,5 C -1,0 C 0,0 km/h
05.02.2015 06:00 -1,1 C 76 % 1010,6 hPa 0,0 l/m 0,0 km/h N-NO -4,8 C -1,1 C 0,0 km/h
05.02.2015 07:00 -1,3 C 76 % 1010,8 hPa 0,0 l/m 0,0 km/h N-NO -5,0 C -1,3 C 0,0 km/h
05.02.2015 08:00 -1,1 C 76 % 1011,0 hPa 0,0 l/m 0,0 km/h N-NO -4,8 C -1,1 C 0,0 km/h
05.02.2015 09:00 -0,4 C 76 % 1010,8 hPa 0,0 l/m 14,3 km/h N-NO -4,1 C -7,0 C 7,9 km/h
05.02.2015 10:00 -0,1 C 75 % 1011,0 hPa 0,0 l/m 0,0 km/h N-NO -4,0 C -0,1 C 0,0 km/h
05.02.2015 11:00 0,6 C 72 % 1011,0 hPa 0,0 l/m 11,7 km/h NW -3,9 C -4,1 C 6,5 km/h
05.02.2015 12:00 0,3 C 73 % 1010,8 hPa 0,0 l/m 9,1 km/h N-NO -4,0 C -2,4 C 5,0 km/h
05.02.2015 13:00 -0,1 C 74 % 1010,4 hPa 0,0 l/m 6,5 km/h N-NO -4,2 C -0,2 C 3,6 km/h
05.02.2015 14:00 0,3 C 71 % 1010,6 hPa 0,0 l/m 10,4 km/h N-NO -4,3 C -3,4 C 5,8 km/h
05.02.2015 15:00 -0,2 C 72 % 1010,2 hPa 0,0 l/m 18,8 km/h O-SO -4,6 C -9,3 C 10,4 km/h
05.02.2015 16:00 -0,5 C 71 % 1010,5 hPa 0,0 l/m 5,8 km/h N-NO -5,1 C -0,5 C 3,2 km/h
05.02.2015 17:00 -0,8 C 73 % 1010,6 hPa 0,0 l/m 0,0 km/h N-NO -5,0 C -0,8 C 0,0 km/h
05.02.2015 18:00 -0,8 C 73 % 1010,5 hPa 0,0 l/m 5,8 km/h N-NO -5,0 C -0,8 C 3,2 km/h
05.02.2015 19:00 -0,7 C 74 % 1010,8 hPa 0,0 l/m 0,0 km/h N-NO -4,7 C -0,7 C 0,0 km/h
05.02.2015 20:00 -0,5 C 75 % 1010,9 hPa 0,0 l/m 0,0 km/h N-NO -4,4 C -0,5 C 0,0 km/h
05.02.2015 21:00 -0,3 C 75 % 1010,8 hPa 0,0 l/m 0,0 km/h N-NO -4,2 C -0,3 C 0,0 km/h
05.02.2015 22:00 -0,2 C 75 % 1010,8 hPa 0,0 l/m 0,0 km/h N-NO -4,1 C -0,2 C 0,0 km/h
05.02.2015 23:00 -0,2 C 75 % 1010,8 hPa 0,0 l/m 3,2 km/h S-SO -4,1 C -0,2 C 1,8 km/h
06.02.2015 00:00 -0,1 C 74 % 1010,9 hPa 0,0 l/m 0,0 km/h O -4,2 C -0,1 C 0,0 km/h
06.02.2015 01:00 -0,5 C 75 % 1010,6 hPa 0,0 l/m 0,0 km/h O-NO -4,4 C -0,5 C 0,0 km/h
06.02.2015 02:00 -0,7 C 76 % 1010,5 hPa 0,0 l/m 0,0 km/h N-NO -4,4 C -0,7 C 0,0 km/h
06.02.2015 03:00 -0,5 C 76 % 1011,3 hPa 0,0 l/m 0,0 km/h N -4,2 C -0,5 C 0,0 km/h
06.02.2015 04:00 -0,6 C 75 % 1011,2 hPa 0,0 l/m 9,1 km/h N -4,5 C -3,3 C 5,0 km/h
06.02.2015 05:00 -0,9 C 75 % 1011,2 hPa 0,0 l/m 0,6 km/h N-NO -4,8 C -0,9 C 0,4 km/h
06.02.2015 06:00 -1,1 C 75 % 1011,6 hPa 0,0 l/m 0,0 km/h N-NO -5,0 C -1,1 C 0,0 km/h
06.02.2015 07:00 -1,7 C 76 % 1011,8 hPa 0,0 l/m 0,0 km/h O-NO -5,4 C -1,7 C 0,0 km/h
06.02.2015 08:00 -0,4 C 73 % 1012,7 hPa 0,0 l/m 0,0 km/h O-NO -4,6 C -0,4 C 0,0 km/h
06.02.2015 09:00 -0,1 C 70 % 1012,9 hPa 0,0 l/m 0,0 km/h N-NO -4,9 C -0,1 C 0,0 km/h
06.02.2015 10:00 5,0 C 57 % 1012,9 hPa 0,0 l/m 0,0 km/h N-NO -2,8 C 5,0 C 0,0 km/h
06.02.2015 11:00 5,5 C 55 % 1013,7 hPa 0,0 l/m 0,0 km/h N-NO -2,8 C 5,5 C 0,0 km/h
06.02.2015 12:00 5,0 C 55 % 1013,6 hPa 0,0 l/m 0,0 km/h O-NO -3,3 C 5,0 C 0,0 km/h
06.02.2015 13:00 6,1 C 52 % 1013,3 hPa 0,0 l/m 0,0 km/h N -3,0 C 6,1 C 0,0 km/h
06.02.2015 14:00 5,8 C 51 % 1013,4 hPa 0,0 l/m 5,8 km/h O-NO -3,5 C 5,8 C 3,2 km/h
06.02.2015 15:00 5,5 C 51 % 1013,9 hPa 0,0 l/m 0,0 km/h NO -3,8 C 5,5 C 0,0 km/h
06.02.2015 16:00 2,3 C 57 % 1014,1 hPa 0,0 l/m 0,0 km/h N-NO -5,3 C 2,3 C 0,0 km/h
06.02.2015 17:00 -0,1 C 65 % 1014,8 hPa 0,0 l/m 0,0 km/h O -5,9 C -0,1 C 0,0 km/h
06.02.2015 18:00 -0,2 C 66 % 1015,3 hPa 0,0 l/m 4,5 km/h O-NO -5,8 C -0,2 C 2,5 km/h
06.02.2015 19:00 -0,6 C 67 % 1016,1 hPa 0,0 l/m 0,0 km/h N-NO -6,0 C -0,6 C 0,0 km/h
06.02.2015 20:00 -0,9 C 67 % 1016,5 hPa 0,0 l/m 0,0 km/h N-NO -6,2 C -0,9 C 0,0 km/h
06.02.2015 21:00 -1,0 C 67 % 1016,7 hPa 0,0 l/m 0,0 km/h SO -6,3 C -1,0 C 0,0 km/h
06.02.2015 22:00 -1,2 C 68 % 1017,4 hPa 0,0 l/m 1,9 km/h SO -6,3 C -1,2 C 1,1 km/h
06.02.2015 23:00 -1,6 C 69 % 1017,6 hPa 0,0 l/m 0,0 km/h NO -6,5 C -1,6 C 0,0 km/h
07.02.2015 00:00 -2,2 C 70 % 1018,3 hPa 0,0 l/m 0,0 km/h NO -6,9 C -2,2 C 0,0 km/h
07.02.2015 01:00 -3,1 C 72 % 1019,1 hPa 0,0 l/m 0,0 km/h N-NO -7,4 C -3,1 C 0,0 km/h
07.02.2015 02:00 -2,9 C 72 % 1019,7 hPa 0,0 l/m 0,0 km/h N-NO -7,2 C -2,9 C 0,0 km/h
07.02.2015 03:00 -3,3 C 72 % 1020,1 hPa 0,0 l/m 8,4 km/h N-NO -7,6 C -5,5 C 4,7 km/h
07.02.2015 04:00 -3,9 C 73 % 1020,5 hPa 0,0 l/m 0,0 km/h SO -8,0 C -3,9 C 0,0 km/h
07.02.2015 05:00 -5,7 C 76 % 1021,1 hPa 0,0 l/m 0,0 km/h W-NW -9,2 C -5,7 C 0,0 km/h
07.02.2015 06:00 -5,6 C 78 % 1021,4 hPa 0,0 l/m 0,0 km/h N -8,8 C -5,6 C 0,0 km/h
07.02.2015 07:00 -5,4 C 78 % 1022,0 hPa 0,0 l/m 0,0 km/h S-SO -8,6 C -5,4 C 0,0 km/h
07.02.2015 08:00 -3,4 C 80 % 1022,8 hPa 0,0 l/m 0,0 km/h S-SO -6,3 C -3,4 C 0,0 km/h
07.02.2015 09:00 2,1 C 68 % 1023,0 hPa 0,0 l/m 0,0 km/h SO -3,2 C 2,1 C 0,0 km/h
07.02.2015 10:00 5,2 C 53 % 1023,3 hPa 0,0 l/m 0,0 km/h W-SW -3,6 C 5,2 C 0,0 km/h
07.02.2015 11:00 7,4 C 48 % 1023,1 hPa 0,0 l/m 0,0 km/h N -2,9 C 7,4 C 0,0 km/h
07.02.2015 12:00 6,4 C 44 % 1022,9 hPa 0,0 l/m 0,0 km/h O-NO -4,9 C 6,4 C 0,0 km/h
07.02.2015 13:00 6,3 C 48 % 1023,0 hPa 0,0 l/m 0,0 km/h NO -3,9 C 6,3 C 0,0 km/h
07.02.2015 14:00 8,1 C 43 % 1022,6 hPa 0,0 l/m 0,0 km/h NO -3,7 C 8,1 C 0,0 km/h
07.02.2015 15:00 10,4 C 41 % 1022,6 hPa 0,0 l/m 0,0 km/h N -2,3 C 10,4 C 0,0 km/h
07.02.2015 16:00 7,6 C 42 % 1023,3 hPa 0,0 l/m 0,0 km/h NO -4,5 C 7,6 C 0,0 km/h
07.02.2015 17:00 -0,2 C 55 % 1023,6 hPa 0,0 l/m 0,0 km/h NO -8,1 C -0,2 C 0,0 km/h
07.02.2015 18:00 -2,7 C 65 % 1024,2 hPa 0,0 l/m 0,0 km/h O -8,3 C -2,7 C 0,0 km/h
07.02.2015 19:00 -3,6 C 73 % 1024,2 hPa 0,0 l/m 0,0 km/h O -7,7 C -3,6 C 0,0 km/h
07.02.2015 20:00 -4,6 C 76 % 1025,0 hPa 0,0 l/m 0,0 km/h SO -8,2 C -4,6 C 0,0 km/h
07.02.2015 21:00 -3,9 C 77 % 1024,4 hPa 0,0 l/m 0,0 km/h NO -7,3 C -3,9 C 0,0 km/h
07.02.2015 22:00 -4,4 C 79 % 1024,5 hPa 0,0 l/m 0,0 km/h SO -7,5 C -4,4 C 0,0 km/h
07.02.2015 23:00 -4,1 C 81 % 1025,0 hPa 0,0 l/m 0,0 km/h O -6,9 C -4,1 C 0,0 km/h
08.02.2015 00:00 -5,6 C 80 % 1024,4 hPa 0,0 l/m 0,0 km/h O -8,5 C -5,6 C 0,0 km/h
08.02.2015 01:00 -5,6 C 82 % 1024,8 hPa 0,0 l/m 0,0 km/h NO -8,2 C -5,6 C 0,0 km/h
08.02.2015 02:00 -3,9 C 82 % 1024,2 hPa 0,0 l/m 0,0 km/h O -6,5 C -3,9 C 0,0 km/h
08.02.2015 03:00 -3,3 C 80 % 1023,8 hPa 0,0 l/m 0,0 km/h SO -6,2 C -3,3 C 0,0 km/h
08.02.2015 04:00 -2,8 C 79 % 1023,4 hPa 0,0 l/m 0,0 km/h SO -5,9 C -2,8 C 0,0 km/h
08.02.2015 05:00 -2,6 C 80 % 1023,4 hPa 0,0 l/m 0,0 km/h S-SO -5,6 C -2,6 C 0,0 km/h
08.02.2015 06:00 -2,7 C 83 % 1023,3 hPa 0,0 l/m 0,0 km/h S-SO -5,2 C -2,7 C 0,0 km/h
08.02.2015 07:00 -2,5 C 83 % 1023,8 hPa 0,0 l/m 0,0 km/h NO -5,0 C -2,5 C 0,0 km/h
08.02.2015 08:00 -2,4 C 84 % 1024,4 hPa 0,0 l/m 0,0 km/h SO -4,7 C -2,4 C 0,0 km/h
08.02.2015 09:00 -1,5 C 84 % 1024,6 hPa 0,0 l/m 0,0 km/h SO -3,8 C -1,5 C 0,0 km/h
08.02.2015 10:00 -0,1 C 83 % 1024,8 hPa 0,0 l/m 0,0 km/h O-NO -2,6 C -0,1 C 0,0 km/h
08.02.2015 11:00 0,7 C 79 % 1025,1 hPa 0,0 l/m 0,0 km/h O-NO -2,5 C 0,7 C 0,0 km/h
08.02.2015 12:00 0,3 C 79 % 1025,3 hPa 0,0 l/m 0,0 km/h O-SO -2,9 C 0,3 C 0,0 km/h
08.02.2015 13:00 3,4 C 79 % 1025,2 hPa 0,0 l/m 0,0 km/h W-NW 0,1 C 3,4 C 0,0 km/h
08.02.2015 14:00 2,5 C 78 % 1025,2 hPa 0,0 l/m 0,0 km/h W-NW -0,9 C 2,5 C 0,0 km/h
08.02.2015 15:00 3,5 C 75 % 1025,6 hPa 0,8 l/m 0,0 km/h W-NW -0,5 C 3,5 C 0,0 km/h
08.02.2015 16:00 0,3 C 79 % 1026,1 hPa 0,0 l/m 0,0 km/h W-NW -2,9 C 0,3 C 0,0 km/h
08.02.2015 17:00 -2,1 C 83 % 1026,8 hPa 0,0 l/m 0,0 km/h W-NW -4,6 C -2,1 C 0,0 km/h
08.02.2015 18:00 -2,9 C 84 % 1027,9 hPa 0,0 l/m 0,0 km/h NW -5,2 C -2,9 C 0,0 km/h
08.02.2015 19:00 -3,7 C 86 % 1028,8 hPa 0,0 l/m 0,0 km/h N-NO -5,7 C -3,7 C 0,0 km/h
08.02.2015 20:00 -3,7 C 86 % 1029,2 hPa 0,0 l/m 0,0 km/h O-SO -5,7 C -3,7 C 0,0 km/h
08.02.2015 21:00 -5,1 C 87 % 1029,6 hPa 0,0 l/m 0,0 km/h SO -6,9 C -5,1 C 0,0 km/h
08.02.2015 22:00 -4,2 C 87 % 1028,8 hPa 0,0 l/m 0,0 km/h SO -6,0 C -4,2 C 0,0 km/h
08.02.2015 23:00 -3,9 C 87 % 1029,4 hPa 0,0 l/m 0,0 km/h SO -5,7 C -3,9 C 0,0 km/h
Min-Datum _ 04.02.15 07.02.15 02.02.15 - 02.02.15 - 07.02.15 05.02.15 02.02.15
_ Min-Zeit 05:53 15:53 00:53 - 03:53 - 05:53 15:53 03:53
Minimum _ -6,3 C 41 % 995,6 hPa - 0,0 km/h - -9,2 C -9,3 C 0,0 km/h
Max-Datum _ 07.02.15 02.02.15 08.02.15 03.02.15 02.02.15 - 03.02.15 07.02.15 02.02.15
_ Max-Zeit 15:53 17:53 21:53 11:53 10:53 - 11:53 15:53 10:53
Maximum _ 10,4 C 88 % 1029,6 hPa 1,6 l/m 18,8 km/h
W-NW
- 4,6 C 10,4 C 10,4 km/h
W-NW
Durchschnitt _ -0,3 C 77 % 1011,6 hPa #12,4 l/m 1,2 km/h N-NO -4,0 C -0,6 C 0,6 km/h
www.sexauwetter.de